sensor_id;sensor_type;location;lat;lon;timestamp;P1;durP1;ratioP1;P2;durP2;ratioP2
67442;SDS011;54311;51.726;5.154;2023-05-07T00:02:25;15.73;;;14.52;;
67442;SDS011;54311;51.726;5.154;2023-05-07T00:04:50;16.35;;;15.05;;
67442;SDS011;54311;51.726;5.154;2023-05-07T00:07:17;14.98;;;13.73;;
67442;SDS011;54311;51.726;5.154;2023-05-07T00:09:42;15.07;;;13.57;;
67442;SDS011;54311;51.726;5.154;2023-05-07T00:12:07;16.45;;;14.77;;
67442;SDS011;54311;51.726;5.154;2023-05-07T00:14:33;15.70;;;14.32;;
67442;SDS011;54311;51.726;5.154;2023-05-07T00:16:58;16.65;;;14.73;;
67442;SDS011;54311;51.726;5.154;2023-05-07T00:19:24;14.35;;;13.15;;
67442;SDS011;54311;51.726;5.154;2023-05-07T00:21:49;16.05;;;13.68;;
67442;SDS011;54311;51.726;5.154;2023-05-07T00:24:14;14.95;;;13.65;;
67442;SDS011;54311;51.726;5.154;2023-05-07T00:26:40;15.38;;;13.55;;
67442;SDS011;54311;51.726;5.154;2023-05-07T00:29:05;15.60;;;14.10;;
67442;SDS011;54311;51.726;5.154;2023-05-07T00:31:30;14.27;;;12.88;;
67442;SDS011;54311;51.726;5.154;2023-05-07T00:33:56;15.48;;;13.25;;
67442;SDS011;54311;51.726;5.154;2023-05-07T00:36:21;14.07;;;12.90;;
67442;SDS011;54311;51.726;5.154;2023-05-07T00:38:46;15.57;;;12.20;;
67442;SDS011;54311;51.726;5.154;2023-05-07T00:41:12;14.90;;;13.50;;
67442;SDS011;54311;51.726;5.154;2023-05-07T00:43:37;13.57;;;12.43;;
67442;SDS011;54311;51.726;5.154;2023-05-07T00:46:02;14.02;;;12.63;;
67442;SDS011;54311;51.726;5.154;2023-05-07T00:48:28;15.60;;;13.18;;
67442;SDS011;54311;51.726;5.154;2023-05-07T00:50:53;12.85;;;11.85;;
67442;SDS011;54311;51.726;5.154;2023-05-07T00:53:19;12.15;;;11.13;;
67442;SDS011;54311;51.726;5.154;2023-05-07T00:55:44;13.07;;;11.98;;
67442;SDS011;54311;51.726;5.154;2023-05-07T00:58:10;13.05;;;11.75;;
67442;SDS011;54311;51.726;5.154;2023-05-07T01:00:36;13.63;;;12.27;;
67442;SDS011;54311;51.726;5.154;2023-05-07T01:03:01;12.05;;;10.88;;
67442;SDS011;54311;51.726;5.154;2023-05-07T01:05:26;13.75;;;11.25;;
67442;SDS011;54311;51.726;5.154;2023-05-07T01:07:53;13.23;;;11.80;;
67442;SDS011;54311;51.726;5.154;2023-05-07T01:10:19;12.38;;;11.30;;
67442;SDS011;54311;51.726;5.154;2023-05-07T01:12:45;11.77;;;10.85;;
67442;SDS011;54311;51.726;5.154;2023-05-07T01:15:12;12.05;;;11.23;;
67442;SDS011;54311;51.726;5.154;2023-05-07T01:17:39;12.20;;;11.15;;
67442;SDS011;54311;51.726;5.154;2023-05-07T01:20:06;11.50;;;10.60;;
67442;SDS011;54311;51.726;5.154;2023-05-07T01:22:32;11.25;;;10.40;;
67442;SDS011;54311;51.726;5.154;2023-05-07T01:25:04;11.40;;;10.52;;
67442;SDS011;54311;51.726;5.154;2023-05-07T01:27:30;11.90;;;10.98;;
67442;SDS011;54311;51.726;5.154;2023-05-07T01:29:55;11.65;;;10.55;;
67442;SDS011;54311;51.726;5.154;2023-05-07T01:32:21;11.02;;;10.23;;
67442;SDS011;54311;51.726;5.154;2023-05-07T01:34:52;10.95;;;10.10;;
67442;SDS011;54311;51.726;5.154;2023-05-07T01:37:19;11.18;;;10.45;;
67442;SDS011;54311;51.726;5.154;2023-05-07T01:39:45;11.05;;;10.25;;
67442;SDS011;54311;51.726;5.154;2023-05-07T01:42:12;12.07;;;10.93;;
67442;SDS011;54311;51.726;5.154;2023-05-07T01:44:37;12.15;;;11.15;;
67442;SDS011;54311;51.726;5.154;2023-05-07T01:47:03;13.40;;;12.27;;
67442;SDS011;54311;51.726;5.154;2023-05-07T01:49:28;12.48;;;11.38;;
67442;SDS011;54311;51.726;5.154;2023-05-07T01:51:54;13.05;;;11.85;;
67442;SDS011;54311;51.726;5.154;2023-05-07T01:54:24;12.98;;;11.68;;
67442;SDS011;54311;51.726;5.154;2023-05-07T01:56:52;12.43;;;11.52;;
67442;SDS011;54311;51.726;5.154;2023-05-07T01:59:17;13.10;;;12.10;;
67442;SDS011;54311;51.726;5.154;2023-05-07T02:01:43;12.45;;;11.43;;
67442;SDS011;54311;51.726;5.154;2023-05-07T02:04:08;12.10;;;11.10;;
67442;SDS011;54311;51.726;5.154;2023-05-07T02:06:33;13.23;;;11.98;;
67442;SDS011;54311;51.726;5.154;2023-05-07T02:08:59;13.07;;;11.75;;
67442;SDS011;54311;51.726;5.154;2023-05-07T02:11:24;13.07;;;11.98;;
67442;SDS011;54311;51.726;5.154;2023-05-07T02:13:50;12.75;;;11.65;;
67442;SDS011;54311;51.726;5.154;2023-05-07T02:16:15;11.68;;;10.65;;
67442;SDS011;54311;51.726;5.154;2023-05-07T02:18:40;12.38;;;11.27;;
67442;SDS011;54311;51.726;5.154;2023-05-07T02:21:06;11.82;;;10.80;;
67442;SDS011;54311;51.726;5.154;2023-05-07T02:23:31;12.80;;;11.75;;
67442;SDS011;54311;51.726;5.154;2023-05-07T02:25:56;13.27;;;12.07;;
67442;SDS011;54311;51.726;5.154;2023-05-07T02:28:22;13.85;;;12.65;;
67442;SDS011;54311;51.726;5.154;2023-05-07T02:30:47;14.32;;;13.23;;
67442;SDS011;54311;51.726;5.154;2023-05-07T02:33:12;13.48;;;12.40;;
67442;SDS011;54311;51.726;5.154;2023-05-07T02:35:38;15.60;;;14.13;;
67442;SDS011;54311;51.726;5.154;2023-05-07T02:38:04;14.02;;;12.77;;
67442;SDS011;54311;51.726;5.154;2023-05-07T02:40:29;14.93;;;13.40;;
67442;SDS011;54311;51.726;5.154;2023-05-07T02:42:58;14.85;;;13.45;;
67442;SDS011;54311;51.726;5.154;2023-05-07T02:45:23;16.35;;;14.80;;
67442;SDS011;54311;51.726;5.154;2023-05-07T02:47:49;16.50;;;14.13;;
67442;SDS011;54311;51.726;5.154;2023-05-07T02:50:14;15.38;;;13.68;;
67442;SDS011;54311;51.726;5.154;2023-05-07T02:52:40;15.85;;;14.38;;
67442;SDS011;54311;51.726;5.154;2023-05-07T02:55:05;16.58;;;15.02;;
67442;SDS011;54311;51.726;5.154;2023-05-07T02:57:31;17.15;;;15.60;;
67442;SDS011;54311;51.726;5.154;2023-05-07T02:59:57;16.27;;;14.77;;
67442;SDS011;54311;51.726;5.154;2023-05-07T03:02:23;16.45;;;14.98;;
67442;SDS011;54311;51.726;5.154;2023-05-07T03:04:48;17.83;;;16.10;;
67442;SDS011;54311;51.726;5.154;2023-05-07T03:07:14;17.30;;;15.77;;
67442;SDS011;54311;51.726;5.154;2023-05-07T03:09:39;17.10;;;15.48;;
67442;SDS011;54311;51.726;5.154;2023-05-07T03:12:04;17.60;;;16.10;;
67442;SDS011;54311;51.726;5.154;2023-05-07T03:14:30;16.60;;;15.20;;
67442;SDS011;54311;51.726;5.154;2023-05-07T03:16:55;16.42;;;14.93;;
67442;SDS011;54311;51.726;5.154;2023-05-07T03:19:20;16.75;;;15.13;;
67442;SDS011;54311;51.726;5.154;2023-05-07T03:21:46;17.00;;;15.50;;
67442;SDS011;54311;51.726;5.154;2023-05-07T03:24:11;18.33;;;16.67;;
67442;SDS011;54311;51.726;5.154;2023-05-07T03:26:36;17.98;;;16.27;;
67442;SDS011;54311;51.726;5.154;2023-05-07T03:29:02;17.92;;;16.13;;
67442;SDS011;54311;51.726;5.154;2023-05-07T03:31:27;19.77;;;17.85;;
67442;SDS011;54311;51.726;5.154;2023-05-07T03:33:53;21.25;;;17.17;;
67442;SDS011;54311;51.726;5.154;2023-05-07T03:36:19;19.27;;;17.10;;
67442;SDS011;54311;51.726;5.154;2023-05-07T03:38:44;20.67;;;18.58;;
67442;SDS011;54311;51.726;5.154;2023-05-07T03:41:10;19.80;;;18.05;;
67442;SDS011;54311;51.726;5.154;2023-05-07T03:43:35;18.60;;;16.83;;
67442;SDS011;54311;51.726;5.154;2023-05-07T03:46:00;19.65;;;17.77;;
67442;SDS011;54311;51.726;5.154;2023-05-07T03:48:26;19.15;;;17.65;;
67442;SDS011;54311;51.726;5.154;2023-05-07T03:50:51;19.27;;;17.35;;
67442;SDS011;54311;51.726;5.154;2023-05-07T03:53:16;20.98;;;19.08;;
67442;SDS011;54311;51.726;5.154;2023-05-07T03:55:42;19.70;;;17.83;;
67442;SDS011;54311;51.726;5.154;2023-05-07T03:58:07;18.95;;;17.30;;
67442;SDS011;54311;51.726;5.154;2023-05-07T04:00:32;19.63;;;17.80;;
67442;SDS011;54311;51.726;5.154;2023-05-07T04:03:02;19.48;;;17.75;;
67442;SDS011;54311;51.726;5.154;2023-05-07T04:05:28;19.42;;;17.50;;
67442;SDS011;54311;51.726;5.154;2023-05-07T04:07:54;19.48;;;17.45;;
67442;SDS011;54311;51.726;5.154;2023-05-07T04:10:19;18.60;;;16.98;;
67442;SDS011;54311;51.726;5.154;2023-05-07T04:12:44;20.15;;;18.23;;
67442;SDS011;54311;51.726;5.154;2023-05-07T04:15:10;20.45;;;18.50;;
67442;SDS011;54311;51.726;5.154;2023-05-07T04:17:35;20.80;;;18.58;;
67442;SDS011;54311;51.726;5.154;2023-05-07T04:20:01;20.65;;;18.70;;
67442;SDS011;54311;51.726;5.154;2023-05-07T04:22:27;21.17;;;18.95;;
67442;SDS011;54311;51.726;5.154;2023-05-07T04:24:52;20.27;;;18.48;;
67442;SDS011;54311;51.726;5.154;2023-05-07T04:27:18;21.25;;;19.23;;
67442;SDS011;54311;51.726;5.154;2023-05-07T04:29:43;20.98;;;19.02;;
67442;SDS011;54311;51.726;5.154;2023-05-07T04:32:12;22.05;;;19.88;;
67442;SDS011;54311;51.726;5.154;2023-05-07T04:34:37;21.88;;;19.70;;
67442;SDS011;54311;51.726;5.154;2023-05-07T04:37:02;23.17;;;20.52;;
67442;SDS011;54311;51.726;5.154;2023-05-07T04:39:28;22.63;;;20.42;;
67442;SDS011;54311;51.726;5.154;2023-05-07T04:41:53;23.55;;;21.55;;
67442;SDS011;54311;51.726;5.154;2023-05-07T04:44:18;23.02;;;21.00;;
67442;SDS011;54311;51.726;5.154;2023-05-07T04:46:44;24.50;;;21.50;;
67442;SDS011;54311;51.726;5.154;2023-05-07T04:49:09;23.85;;;21.55;;
67442;SDS011;54311;51.726;5.154;2023-05-07T04:51:36;22.33;;;20.38;;
67442;SDS011;54311;51.726;5.154;2023-05-07T04:54:03;24.10;;;21.92;;
67442;SDS011;54311;51.726;5.154;2023-05-07T04:56:28;25.40;;;22.73;;
67442;SDS011;54311;51.726;5.154;2023-05-07T04:58:55;24.67;;;22.27;;
67442;SDS011;54311;51.726;5.154;2023-05-07T05:01:20;24.52;;;22.02;;
67442;SDS011;54311;51.726;5.154;2023-05-07T05:03:46;25.55;;;23.05;;
67442;SDS011;54311;51.726;5.154;2023-05-07T05:06:11;24.60;;;22.23;;
67442;SDS011;54311;51.726;5.154;2023-05-07T05:08:36;25.25;;;22.98;;
67442;SDS011;54311;51.726;5.154;2023-05-07T05:11:02;24.92;;;22.65;;
67442;SDS011;54311;51.726;5.154;2023-05-07T05:13:27;27.58;;;24.90;;
67442;SDS011;54311;51.726;5.154;2023-05-07T05:15:53;26.90;;;24.42;;
67442;SDS011;54311;51.726;5.154;2023-05-07T05:18:18;26.90;;;24.13;;
67442;SDS011;54311;51.726;5.154;2023-05-07T05:20:43;27.75;;;25.25;;
67442;SDS011;54311;51.726;5.154;2023-05-07T05:23:09;28.52;;;25.73;;
67442;SDS011;54311;51.726;5.154;2023-05-07T05:25:34;29.55;;;26.50;;
67442;SDS011;54311;51.726;5.154;2023-05-07T05:28:00;28.38;;;25.35;;
67442;SDS011;54311;51.726;5.154;2023-05-07T05:30:26;28.50;;;25.95;;
67442;SDS011;54311;51.726;5.154;2023-05-07T05:32:51;28.65;;;26.05;;
67442;SDS011;54311;51.726;5.154;2023-05-07T05:35:16;29.75;;;26.95;;
67442;SDS011;54311;51.726;5.154;2023-05-07T05:37:42;30.92;;;28.02;;
67442;SDS011;54311;51.726;5.154;2023-05-07T05:40:07;30.02;;;26.75;;
67442;SDS011;54311;51.726;5.154;2023-05-07T05:42:33;31.63;;;28.15;;
67442;SDS011;54311;51.726;5.154;2023-05-07T05:44:58;30.80;;;27.70;;
67442;SDS011;54311;51.726;5.154;2023-05-07T05:47:23;30.48;;;27.52;;
67442;SDS011;54311;51.726;5.154;2023-05-07T05:49:49;31.42;;;28.30;;
67442;SDS011;54311;51.726;5.154;2023-05-07T05:52:14;31.83;;;28.73;;
67442;SDS011;54311;51.726;5.154;2023-05-07T05:54:39;31.77;;;28.52;;
67442;SDS011;54311;51.726;5.154;2023-05-07T05:57:05;31.08;;;28.23;;
67442;SDS011;54311;51.726;5.154;2023-05-07T05:59:30;30.13;;;27.20;;
67442;SDS011;54311;51.726;5.154;2023-05-07T06:01:56;34.28;;;30.95;;
67442;SDS011;54311;51.726;5.154;2023-05-07T06:04:21;31.85;;;28.85;;
67442;SDS011;54311;51.726;5.154;2023-05-07T06:06:46;32.42;;;29.15;;
67442;SDS011;54311;51.726;5.154;2023-05-07T06:09:12;32.58;;;29.15;;
67442;SDS011;54311;51.726;5.154;2023-05-07T06:11:37;33.03;;;29.88;;
67442;SDS011;54311;51.726;5.154;2023-05-07T06:14:03;34.70;;;31.20;;
67442;SDS011;54311;51.726;5.154;2023-05-07T06:16:28;35.20;;;31.25;;
67442;SDS011;54311;51.726;5.154;2023-05-07T06:18:53;33.92;;;30.48;;
67442;SDS011;54311;51.726;5.154;2023-05-07T06:21:19;36.33;;;32.63;;
67442;SDS011;54311;51.726;5.154;2023-05-07T06:23:44;35.58;;;32.28;;
67442;SDS011;54311;51.726;5.154;2023-05-07T06:26:09;37.00;;;33.35;;
67442;SDS011;54311;51.726;5.154;2023-05-07T06:28:35;37.92;;;33.92;;
67442;SDS011;54311;51.726;5.154;2023-05-07T06:31:15;36.15;;;32.53;;
67442;SDS011;54311;51.726;5.154;2023-05-07T06:33:42;36.22;;;32.72;;
67442;SDS011;54311;51.726;5.154;2023-05-07T06:36:09;36.72;;;32.85;;
67442;SDS011;54311;51.726;5.154;2023-05-07T06:38:34;38.42;;;34.67;;
67442;SDS011;54311;51.726;5.154;2023-05-07T06:41:00;38.00;;;34.00;;
67442;SDS011;54311;51.726;5.154;2023-05-07T06:43:25;38.22;;;34.55;;
67442;SDS011;54311;51.726;5.154;2023-05-07T06:45:50;40.45;;;36.08;;
67442;SDS011;54311;51.726;5.154;2023-05-07T06:48:16;38.22;;;34.28;;
67442;SDS011;54311;51.726;5.154;2023-05-07T06:50:41;38.70;;;35.05;;
67442;SDS011;54311;51.726;5.154;2023-05-07T06:53:07;38.58;;;34.92;;
67442;SDS011;54311;51.726;5.154;2023-05-07T06:55:32;39.70;;;35.45;;
67442;SDS011;54311;51.726;5.154;2023-05-07T06:57:58;38.75;;;34.75;;
67442;SDS011;54311;51.726;5.154;2023-05-07T07:00:25;39.63;;;35.67;;
67442;SDS011;54311;51.726;5.154;2023-05-07T07:02:54;39.15;;;35.00;;
67442;SDS011;54311;51.726;5.154;2023-05-07T07:05:19;39.72;;;35.97;;
67442;SDS011;54311;51.726;5.154;2023-05-07T07:07:45;40.40;;;36.22;;
67442;SDS011;54311;51.726;5.154;2023-05-07T07:10:17;39.13;;;35.10;;
67442;SDS011;54311;51.726;5.154;2023-05-07T07:12:43;39.85;;;35.63;;
67442;SDS011;54311;51.726;5.154;2023-05-07T07:15:09;37.95;;;34.17;;
67442;SDS011;54311;51.726;5.154;2023-05-07T07:17:35;38.28;;;34.33;;
67442;SDS011;54311;51.726;5.154;2023-05-07T07:20:01;38.40;;;34.20;;
67442;SDS011;54311;51.726;5.154;2023-05-07T07:22:27;37.50;;;33.80;;
67442;SDS011;54311;51.726;5.154;2023-05-07T07:24:53;35.60;;;32.22;;
67442;SDS011;54311;51.726;5.154;2023-05-07T07:27:18;37.90;;;34.15;;
67442;SDS011;54311;51.726;5.154;2023-05-07T07:29:43;40.10;;;36.05;;
67442;SDS011;54311;51.726;5.154;2023-05-07T07:32:09;39.33;;;35.63;;
67442;SDS011;54311;51.726;5.154;2023-05-07T07:34:34;40.78;;;36.78;;
67442;SDS011;54311;51.726;5.154;2023-05-07T07:37:00;39.05;;;35.42;;
67442;SDS011;54311;51.726;5.154;2023-05-07T07:39:30;37.83;;;34.33;;
67442;SDS011;54311;51.726;5.154;2023-05-07T07:41:56;38.03;;;34.35;;
67442;SDS011;54311;51.726;5.154;2023-05-07T07:44:21;37.28;;;33.80;;
67442;SDS011;54311;51.726;5.154;2023-05-07T07:46:46;35.40;;;31.80;;
67442;SDS011;54311;51.726;5.154;2023-05-07T07:49:12;36.63;;;32.85;;
67442;SDS011;54311;51.726;5.154;2023-05-07T07:51:37;36.28;;;30.35;;
67442;SDS011;54311;51.726;5.154;2023-05-07T07:54:03;33.92;;;30.77;;
67442;SDS011;54311;51.726;5.154;2023-05-07T07:56:28;35.17;;;31.63;;
67442;SDS011;54311;51.726;5.154;2023-05-07T07:58:53;33.20;;;29.77;;
67442;SDS011;54311;51.726;5.154;2023-05-07T08:01:19;33.22;;;29.77;;
67442;SDS011;54311;51.726;5.154;2023-05-07T08:03:44;32.70;;;28.70;;
67442;SDS011;54311;51.726;5.154;2023-05-07T08:06:10;34.72;;;31.13;;
67442;SDS011;54311;51.726;5.154;2023-05-07T08:08:35;34.28;;;31.02;;
67442;SDS011;54311;51.726;5.154;2023-05-07T08:11:01;34.88;;;31.75;;
67442;SDS011;54311;51.726;5.154;2023-05-07T08:13:26;38.13;;;34.30;;
67442;SDS011;54311;51.726;5.154;2023-05-07T08:15:51;37.13;;;33.60;;
67442;SDS011;54311;51.726;5.154;2023-05-07T08:18:17;33.95;;;30.50;;
67442;SDS011;54311;51.726;5.154;2023-05-07T08:20:42;33.55;;;30.00;;
67442;SDS011;54311;51.726;5.154;2023-05-07T08:23:08;31.70;;;28.70;;
67442;SDS011;54311;51.726;5.154;2023-05-07T08:25:33;30.77;;;27.63;;
67442;SDS011;54311;51.726;5.154;2023-05-07T08:27:59;29.13;;;26.33;;
67442;SDS011;54311;51.726;5.154;2023-05-07T08:30:25;29.83;;;26.98;;
67442;SDS011;54311;51.726;5.154;2023-05-07T08:32:50;29.60;;;26.80;;
67442;SDS011;54311;51.726;5.154;2023-05-07T08:35:16;30.00;;;26.80;;
67442;SDS011;54311;51.726;5.154;2023-05-07T08:37:41;29.30;;;26.30;;
67442;SDS011;54311;51.726;5.154;2023-05-07T08:40:06;28.95;;;26.00;;
67442;SDS011;54311;51.726;5.154;2023-05-07T08:42:33;29.80;;;26.95;;
67442;SDS011;54311;51.726;5.154;2023-05-07T08:45:00;28.35;;;25.42;;
67442;SDS011;54311;51.726;5.154;2023-05-07T08:47:33;28.73;;;25.50;;
67442;SDS011;54311;51.726;5.154;2023-05-07T08:50:01;27.52;;;24.92;;
67442;SDS011;54311;51.726;5.154;2023-05-07T08:52:27;27.73;;;25.00;;
67442;SDS011;54311;51.726;5.154;2023-05-07T08:54:52;27.02;;;24.35;;
67442;SDS011;54311;51.726;5.154;2023-05-07T08:57:17;28.48;;;25.52;;
67442;SDS011;54311;51.726;5.154;2023-05-07T08:59:44;27.92;;;25.33;;
67442;SDS011;54311;51.726;5.154;2023-05-07T09:02:10;29.55;;;26.65;;
67442;SDS011;54311;51.726;5.154;2023-05-07T09:04:36;29.15;;;26.38;;
67442;SDS011;54311;51.726;5.154;2023-05-07T09:07:01;28.90;;;26.20;;
67442;SDS011;54311;51.726;5.154;2023-05-07T09:09:31;27.15;;;24.77;;
67442;SDS011;54311;51.726;5.154;2023-05-07T09:11:57;28.73;;;26.05;;
67442;SDS011;54311;51.726;5.154;2023-05-07T09:14:25;29.90;;;27.10;;
67442;SDS011;54311;51.726;5.154;2023-05-07T09:16:53;29.00;;;26.15;;
67442;SDS011;54311;51.726;5.154;2023-05-07T09:19:25;29.05;;;25.42;;
67442;SDS011;54311;51.726;5.154;2023-05-07T09:22:02;29.52;;;26.58;;
67442;SDS011;54311;51.726;5.154;2023-05-07T09:24:28;29.02;;;26.13;;
67442;SDS011;54311;51.726;5.154;2023-05-07T09:26:57;27.83;;;25.35;;
67442;SDS011;54311;51.726;5.154;2023-05-07T09:29:22;26.77;;;24.13;;
67442;SDS011;54311;51.726;5.154;2023-05-07T09:31:48;28.40;;;25.58;;
67442;SDS011;54311;51.726;5.154;2023-05-07T09:34:13;27.35;;;24.65;;
67442;SDS011;54311;51.726;5.154;2023-05-07T09:36:38;26.98;;;24.50;;
67442;SDS011;54311;51.726;5.154;2023-05-07T09:39:04;28.00;;;25.30;;
67442;SDS011;54311;51.726;5.154;2023-05-07T09:41:32;27.85;;;25.10;;
67442;SDS011;54311;51.726;5.154;2023-05-07T09:43:58;27.58;;;24.77;;
67442;SDS011;54311;51.726;5.154;2023-05-07T09:46:29;26.48;;;24.08;;
67442;SDS011;54311;51.726;5.154;2023-05-07T09:48:56;25.60;;;23.30;;
67442;SDS011;54311;51.726;5.154;2023-05-07T09:51:28;27.02;;;24.42;;
67442;SDS011;54311;51.726;5.154;2023-05-07T09:53:56;28.23;;;25.50;;
67442;SDS011;54311;51.726;5.154;2023-05-07T09:56:23;25.92;;;23.52;;
67442;SDS011;54311;51.726;5.154;2023-05-07T09:58:49;24.50;;;22.20;;
67442;SDS011;54311;51.726;5.154;2023-05-07T10:01:15;25.98;;;23.50;;
67442;SDS011;54311;51.726;5.154;2023-05-07T10:03:42;24.90;;;22.70;;
67442;SDS011;54311;51.726;5.154;2023-05-07T10:06:09;24.05;;;21.80;;
67442;SDS011;54311;51.726;5.154;2023-05-07T10:08:35;24.17;;;21.95;;
67442;SDS011;54311;51.726;5.154;2023-05-07T10:11:01;25.70;;;23.35;;
67442;SDS011;54311;51.726;5.154;2023-05-07T10:13:28;25.20;;;22.88;;
67442;SDS011;54311;51.726;5.154;2023-05-07T10:15:54;25.50;;;22.85;;
67442;SDS011;54311;51.726;5.154;2023-05-07T10:18:21;26.30;;;23.83;;
67442;SDS011;54311;51.726;5.154;2023-05-07T10:20:48;24.75;;;22.50;;
67442;SDS011;54311;51.726;5.154;2023-05-07T10:23:16;25.40;;;22.88;;
67442;SDS011;54311;51.726;5.154;2023-05-07T10:25:44;24.45;;;22.30;;
67442;SDS011;54311;51.726;5.154;2023-05-07T10:28:10;23.05;;;20.75;;
67442;SDS011;54311;51.726;5.154;2023-05-07T10:30:48;24.33;;;21.95;;
67442;SDS011;54311;51.726;5.154;2023-05-07T10:33:26;23.70;;;21.30;;
67442;SDS011;54311;51.726;5.154;2023-05-07T10:35:52;23.75;;;21.42;;
67442;SDS011;54311;51.726;5.154;2023-05-07T10:38:21;23.10;;;21.05;;
67442;SDS011;54311;51.726;5.154;2023-05-07T10:40:46;23.25;;;20.75;;
67442;SDS011;54311;51.726;5.154;2023-05-07T10:43:11;25.55;;;23.05;;
67442;SDS011;54311;51.726;5.154;2023-05-07T10:45:37;24.08;;;21.63;;
67442;SDS011;54311;51.726;5.154;2023-05-07T10:48:15;23.67;;;21.52;;
67442;SDS011;54311;51.726;5.154;2023-05-07T10:50:42;23.17;;;21.08;;
67442;SDS011;54311;51.726;5.154;2023-05-07T10:55:43;22.23;;;20.13;;
67442;SDS011;54311;51.726;5.154;2023-05-07T10:58:29;22.15;;;20.13;;
67442;SDS011;54311;51.726;5.154;2023-05-07T11:00:58;23.30;;;21.10;;
67442;SDS011;54311;51.726;5.154;2023-05-07T11:03:25;23.05;;;20.70;;
67442;SDS011;54311;51.726;5.154;2023-05-07T11:08:55;22.98;;;20.90;;
67442;SDS011;54311;51.726;5.154;2023-05-07T11:16:31;22.23;;;20.07;;
67442;SDS011;54311;51.726;5.154;2023-05-07T11:18:58;22.65;;;20.45;;
67442;SDS011;54311;51.726;5.154;2023-05-07T11:21:37;22.60;;;20.30;;
67442;SDS011;54311;51.726;5.154;2023-05-07T11:24:07;22.00;;;19.90;;
67442;SDS011;54311;51.726;5.154;2023-05-07T11:26:43;21.83;;;19.75;;
67442;SDS011;54311;51.726;5.154;2023-05-07T11:29:13;20.35;;;18.23;;
67442;SDS011;54311;51.726;5.154;2023-05-07T11:31:41;19.95;;;18.27;;
67442;SDS011;54311;51.726;5.154;2023-05-07T11:34:07;21.08;;;19.30;;
67442;SDS011;54311;51.726;5.154;2023-05-07T11:36:33;22.33;;;18.88;;
67442;SDS011;54311;51.726;5.154;2023-05-07T11:38:58;22.40;;;20.15;;
67442;SDS011;54311;51.726;5.154;2023-05-07T11:41:33;21.08;;;18.85;;
67442;SDS011;54311;51.726;5.154;2023-05-07T11:43:59;20.77;;;18.70;;
67442;SDS011;54311;51.726;5.154;2023-05-07T11:46:26;21.30;;;19.08;;
67442;SDS011;54311;51.726;5.154;2023-05-07T11:48:52;21.45;;;19.50;;
67442;SDS011;54311;51.726;5.154;2023-05-07T11:51:21;20.88;;;19.17;;
67442;SDS011;54311;51.726;5.154;2023-05-07T11:53:47;21.38;;;19.50;;
67442;SDS011;54311;51.726;5.154;2023-05-07T11:56:14;19.65;;;17.92;;
67442;SDS011;54311;51.726;5.154;2023-05-07T11:58:43;20.15;;;18.10;;
67442;SDS011;54311;51.726;5.154;2023-05-07T12:01:10;20.77;;;18.90;;
67442;SDS011;54311;51.726;5.154;2023-05-07T12:03:36;23.45;;;18.10;;
67442;SDS011;54311;51.726;5.154;2023-05-07T12:06:07;19.35;;;17.38;;
67442;SDS011;54311;51.726;5.154;2023-05-07T12:08:32;20.25;;;18.35;;
67442;SDS011;54311;51.726;5.154;2023-05-07T12:10:57;20.60;;;18.55;;
67442;SDS011;54311;51.726;5.154;2023-05-07T12:13:24;19.98;;;18.10;;
67442;SDS011;54311;51.726;5.154;2023-05-07T12:15:54;19.42;;;17.65;;
67442;SDS011;54311;51.726;5.154;2023-05-07T12:18:20;19.73;;;17.92;;
67442;SDS011;54311;51.726;5.154;2023-05-07T12:20:46;20.27;;;18.48;;
67442;SDS011;54311;51.726;5.154;2023-05-07T12:23:12;20.50;;;18.35;;
67442;SDS011;54311;51.726;5.154;2023-05-07T12:25:38;18.17;;;16.52;;
67442;SDS011;54311;51.726;5.154;2023-05-07T12:28:05;21.15;;;17.70;;
67442;SDS011;54311;51.726;5.154;2023-05-07T12:30:31;20.40;;;18.25;;
67442;SDS011;54311;51.726;5.154;2023-05-07T12:32:57;17.80;;;16.30;;
67442;SDS011;54311;51.726;5.154;2023-05-07T12:35:35;14.50;;;13.32;;
67442;SDS011;54311;51.726;5.154;2023-05-07T12:38:02;18.08;;;15.68;;
67442;SDS011;54311;51.726;5.154;2023-05-07T12:40:42;15.57;;;14.18;;
67442;SDS011;54311;51.726;5.154;2023-05-07T12:43:24;16.27;;;14.85;;
67442;SDS011;54311;51.726;5.154;2023-05-07T12:45:51;16.13;;;13.07;;
67442;SDS011;54311;51.726;5.154;2023-05-07T12:48:17;12.45;;;11.45;;
67442;SDS011;54311;51.726;5.154;2023-05-07T12:50:44;13.43;;;12.07;;
67442;SDS011;54311;51.726;5.154;2023-05-07T12:53:10;17.20;;;12.15;;
67442;SDS011;54311;51.726;5.154;2023-05-07T12:55:44;14.73;;;13.38;;
67442;SDS011;54311;51.726;5.154;2023-05-07T12:58:20;14.48;;;13.05;;
67442;SDS011;54311;51.726;5.154;2023-05-07T13:00:50;13.65;;;12.32;;
67442;SDS011;54311;51.726;5.154;2023-05-07T13:03:29;18.00;;;12.52;;
67442;SDS011;54311;51.726;5.154;2023-05-07T13:05:57;12.95;;;11.40;;
67442;SDS011;54311;51.726;5.154;2023-05-07T13:08:30;12.88;;;10.95;;
67442;SDS011;54311;51.726;5.154;2023-05-07T13:10:58;14.05;;;11.05;;
67442;SDS011;54311;51.726;5.154;2023-05-07T13:13:25;12.27;;;11.18;;
67442;SDS011;54311;51.726;5.154;2023-05-07T13:15:50;11.55;;;9.20;;
67442;SDS011;54311;51.726;5.154;2023-05-07T13:18:17;10.38;;;9.13;;
67442;SDS011;54311;51.726;5.154;2023-05-07T13:20:42;10.95;;;9.82;;
67442;SDS011;54311;51.726;5.154;2023-05-07T13:23:07;13.13;;;10.52;;
67442;SDS011;54311;51.726;5.154;2023-05-07T13:25:33;12.43;;;11.32;;
67442;SDS011;54311;51.726;5.154;2023-05-07T13:27:58;12.50;;;11.30;;
67442;SDS011;54311;51.726;5.154;2023-05-07T13:30:24;13.50;;;11.90;;
67442;SDS011;54311;51.726;5.154;2023-05-07T13:32:50;14.75;;;12.25;;
67442;SDS011;54311;51.726;5.154;2023-05-07T13:35:17;13.15;;;11.88;;
67442;SDS011;54311;51.726;5.154;2023-05-07T13:37:42;13.50;;;12.07;;
67442;SDS011;54311;51.726;5.154;2023-05-07T13:40:07;13.20;;;11.88;;
67442;SDS011;54311;51.726;5.154;2023-05-07T13:42:33;12.57;;;11.57;;
67442;SDS011;54311;51.726;5.154;2023-05-07T13:44:58;13.13;;;11.93;;
67442;SDS011;54311;51.726;5.154;2023-05-07T13:47:24;12.27;;;11.07;;
67442;SDS011;54311;51.726;5.154;2023-05-07T13:49:49;12.43;;;11.43;;
67442;SDS011;54311;51.726;5.154;2023-05-07T13:52:15;12.35;;;11.15;;
67442;SDS011;54311;51.726;5.154;2023-05-07T13:54:41;13.75;;;12.15;;
67442;SDS011;54311;51.726;5.154;2023-05-07T13:57:06;13.32;;;12.02;;
67442;SDS011;54311;51.726;5.154;2023-05-07T13:59:32;14.38;;;11.70;;
67442;SDS011;54311;51.726;5.154;2023-05-07T14:01:57;18.85;;;12.82;;
67442;SDS011;54311;51.726;5.154;2023-05-07T14:04:23;13.40;;;12.20;;
67442;SDS011;54311;51.726;5.154;2023-05-07T14:06:48;14.30;;;12.77;;
67442;SDS011;54311;51.726;5.154;2023-05-07T14:09:13;15.20;;;13.65;;
67442;SDS011;54311;51.726;5.154;2023-05-07T14:11:39;14.02;;;12.68;;
67442;SDS011;54311;51.726;5.154;2023-05-07T14:14:05;13.43;;;12.10;;
67442;SDS011;54311;51.726;5.154;2023-05-07T14:16:30;18.35;;;16.52;;
67442;SDS011;54311;51.726;5.154;2023-05-07T14:18:55;18.23;;;15.98;;
67442;SDS011;54311;51.726;5.154;2023-05-07T14:21:21;17.92;;;15.73;;
67442;SDS011;54311;51.726;5.154;2023-05-07T14:23:46;15.70;;;13.77;;
67442;SDS011;54311;51.726;5.154;2023-05-07T14:26:12;14.18;;;12.70;;
67442;SDS011;54311;51.726;5.154;2023-05-07T14:28:37;15.85;;;14.23;;